sensor_id;sensor_type;location;lat;lon;timestamp;temperature;humidity
21255;DHT22;10785;50.674;17.954;2024-02-16T00:00:07;7.30;99.90
21255;DHT22;10785;50.674;17.954;2024-02-16T00:02:53;7.30;99.90
21255;DHT22;10785;50.674;17.954;2024-02-16T00:05:44;7.30;99.90
21255;DHT22;10785;50.674;17.954;2024-02-16T00:08:17;7.40;99.90
21255;DHT22;10785;50.674;17.954;2024-02-16T00:10:54;7.40;99.90
21255;DHT22;10785;50.674;17.954;2024-02-16T00:13:24;7.40;99.90
21255;DHT22;10785;50.674;17.954;2024-02-16T00:16:01;7.30;99.90
21255;DHT22;10785;50.674;17.954;2024-02-16T00:18:39;7.30;99.90
21255;DHT22;10785;50.674;17.954;2024-02-16T00:21:22;7.40;99.90
21255;DHT22;10785;50.674;17.954;2024-02-16T00:23:57;7.40;99.90
21255;DHT22;10785;50.674;17.954;2024-02-16T00:26:27;7.40;99.90
21255;DHT22;10785;50.674;17.954;2024-02-16T00:29:07;7.40;99.90
21255;DHT22;10785;50.674;17.954;2024-02-16T00:31:52;7.40;99.90
21255;DHT22;10785;50.674;17.954;2024-02-16T00:34:30;7.40;99.90
21255;DHT22;10785;50.674;17.954;2024-02-16T00:37:16;7.40;99.90
21255;DHT22;10785;50.674;17.954;2024-02-16T00:40:02;8.40;99.90
21255;DHT22;10785;50.674;17.954;2024-02-16T00:42:48;7.50;99.90
21255;DHT22;10785;50.674;17.954;2024-02-16T00:45:34;7.70;99.90
21255;DHT22;10785;50.674;17.954;2024-02-16T00:48:23;7.50;99.90
21255;DHT22;10785;50.674;17.954;2024-02-16T00:51:09;7.40;99.90
21255;DHT22;10785;50.674;17.954;2024-02-16T00:54:02;7.40;99.90
21255;DHT22;10785;50.674;17.954;2024-02-16T00:56:39;7.50;99.90
21255;DHT22;10785;50.674;17.954;2024-02-16T00:59:21;7.50;99.90
21255;DHT22;10785;50.674;17.954;2024-02-16T01:02:03;7.60;99.90
21255;DHT22;10785;50.674;17.954;2024-02-16T01:04:34;7.50;99.90
21255;DHT22;10785;50.674;17.954;2024-02-16T01:07:29;7.40;99.90
21255;DHT22;10785;50.674;17.954;2024-02-16T01:10:11;7.50;99.90
21255;DHT22;10785;50.674;17.954;2024-02-16T01:13:00;7.50;99.90
21255;DHT22;10785;50.674;17.954;2024-02-16T01:15:44;7.60;99.90
21255;DHT22;10785;50.674;17.954;2024-02-16T01:18:35;7.60;99.90
21255;DHT22;10785;50.674;17.954;2024-02-16T01:21:17;7.50;99.90
21255;DHT22;10785;50.674;17.954;2024-02-16T01:24:24;7.70;99.90
21255;DHT22;10785;50.674;17.954;2024-02-16T01:27:10;7.50;99.90
21255;DHT22;10785;50.674;17.954;2024-02-16T01:29:46;7.50;99.90
21255;DHT22;10785;50.674;17.954;2024-02-16T01:32:25;7.60;99.90
21255;DHT22;10785;50.674;17.954;2024-02-16T01:35:06;7.90;99.90
21255;DHT22;10785;50.674;17.954;2024-02-16T01:37:48;7.50;99.90
21255;DHT22;10785;50.674;17.954;2024-02-16T01:40:33;7.50;99.90
21255;DHT22;10785;50.674;17.954;2024-02-16T01:43:19;7.50;99.90
21255;DHT22;10785;50.674;17.954;2024-02-16T01:45:55;7.50;99.90
21255;DHT22;10785;50.674;17.954;2024-02-16T01:48:36;7.70;99.90
21255;DHT22;10785;50.674;17.954;2024-02-16T01:51:22;7.40;99.90
21255;DHT22;10785;50.674;17.954;2024-02-16T01:54:06;6.70;99.90
21255;DHT22;10785;50.674;17.954;2024-02-16T01:56:51;7.30;99.90
21255;DHT22;10785;50.674;17.954;2024-02-16T01:59:36;7.30;99.90
21255;DHT22;10785;50.674;17.954;2024-02-16T02:02:20;7.40;99.90
21255;DHT22;10785;50.674;17.954;2024-02-16T02:05:01;7.20;99.90
21255;DHT22;10785;50.674;17.954;2024-02-16T02:07:40;7.30;99.90
21255;DHT22;10785;50.674;17.954;2024-02-16T02:10:31;7.30;99.90
21255;DHT22;10785;50.674;17.954;2024-02-16T02:13:23;7.30;99.90
21255;DHT22;10785;50.674;17.954;2024-02-16T02:15:59;7.30;99.90
21255;DHT22;10785;50.674;17.954;2024-02-16T02:18:50;7.30;99.90
21255;DHT22;10785;50.674;17.954;2024-02-16T02:21:39;7.20;99.90
21255;DHT22;10785;50.674;17.954;2024-02-16T02:24:25;7.20;99.90
21255;DHT22;10785;50.674;17.954;2024-02-16T02:27:09;7.10;99.90
21255;DHT22;10785;50.674;17.954;2024-02-16T02:30:09;7.00;99.90
21255;DHT22;10785;50.674;17.954;2024-02-16T02:32:47;6.90;99.90
21255;DHT22;10785;50.674;17.954;2024-02-16T02:35:23;6.90;99.90
21255;DHT22;10785;50.674;17.954;2024-02-16T02:38:07;6.90;99.90
21255;DHT22;10785;50.674;17.954;2024-02-16T02:40:56;6.90;99.90
21255;DHT22;10785;50.674;17.954;2024-02-16T02:43:42;6.80;99.90
21255;DHT22;10785;50.674;17.954;2024-02-16T02:46:24;6.80;99.90
21255;DHT22;10785;50.674;17.954;2024-02-16T02:49:00;6.80;99.90
21255;DHT22;10785;50.674;17.954;2024-02-16T02:51:41;6.70;99.90
21255;DHT22;10785;50.674;17.954;2024-02-16T02:54:18;6.80;99.90
21255;DHT22;10785;50.674;17.954;2024-02-16T02:56:58;6.80;99.90
21255;DHT22;10785;50.674;17.954;2024-02-16T02:59:41;6.80;99.90
21255;DHT22;10785;50.674;17.954;2024-02-16T03:02:21;6.80;99.90
21255;DHT22;10785;50.674;17.954;2024-02-16T03:04:54;7.00;99.90
21255;DHT22;10785;50.674;17.954;2024-02-16T03:07:36;6.70;99.90
21255;DHT22;10785;50.674;17.954;2024-02-16T03:10:25;6.70;99.90
21255;DHT22;10785;50.674;17.954;2024-02-16T03:13:06;6.70;99.90
21255;DHT22;10785;50.674;17.954;2024-02-16T03:15:43;6.70;99.90
21255;DHT22;10785;50.674;17.954;2024-02-16T03:18:21;6.70;99.90
21255;DHT22;10785;50.674;17.954;2024-02-16T03:21:06;6.70;99.90
21255;DHT22;10785;50.674;17.954;2024-02-16T03:23:50;6.70;99.90
21255;DHT22;10785;50.674;17.954;2024-02-16T03:26:30;6.70;99.90
21255;DHT22;10785;50.674;17.954;2024-02-16T03:29:05;6.70;99.90
21255;DHT22;10785;50.674;17.954;2024-02-16T03:31:41;6.60;99.90
21255;DHT22;10785;50.674;17.954;2024-02-16T03:34:25;6.70;99.90
21255;DHT22;10785;50.674;17.954;2024-02-16T03:37:05;6.60;99.90
21255;DHT22;10785;50.674;17.954;2024-02-16T03:39:41;6.60;99.90
21255;DHT22;10785;50.674;17.954;2024-02-16T03:42:25;5.80;99.90
21255;DHT22;10785;50.674;17.954;2024-02-16T03:45:15;6.60;99.90
21255;DHT22;10785;50.674;17.954;2024-02-16T03:48:02;6.60;99.90
21255;DHT22;10785;50.674;17.954;2024-02-16T03:50:50;6.60;99.90
21255;DHT22;10785;50.674;17.954;2024-02-16T03:53:32;6.70;99.90
21255;DHT22;10785;50.674;17.954;2024-02-16T03:56:24;6.90;99.90
21255;DHT22;10785;50.674;17.954;2024-02-16T03:59:06;6.70;99.90
21255;DHT22;10785;50.674;17.954;2024-02-16T04:01:45;6.70;99.90
21255;DHT22;10785;50.674;17.954;2024-02-16T04:04:32;6.80;99.90
21255;DHT22;10785;50.674;17.954;2024-02-16T04:07:21;6.80;99.90
21255;DHT22;10785;50.674;17.954;2024-02-16T04:10:06;6.70;99.90
21255;DHT22;10785;50.674;17.954;2024-02-16T04:12:41;6.70;99.90
21255;DHT22;10785;50.674;17.954;2024-02-16T04:15:21;6.80;99.90
21255;DHT22;10785;50.674;17.954;2024-02-16T04:18:17;6.70;99.90
21255;DHT22;10785;50.674;17.954;2024-02-16T04:21:02;6.70;99.90
21255;DHT22;10785;50.674;17.954;2024-02-16T04:23:42;6.70;99.90
21255;DHT22;10785;50.674;17.954;2024-02-16T04:26:26;6.60;99.90
21255;DHT22;10785;50.674;17.954;2024-02-16T04:29:07;6.60;99.90
21255;DHT22;10785;50.674;17.954;2024-02-16T04:31:48;7.10;99.90
21255;DHT22;10785;50.674;17.954;2024-02-16T04:34:37;6.70;99.90
21255;DHT22;10785;50.674;17.954;2024-02-16T04:37:26;6.60;99.90
21255;DHT22;10785;50.674;17.954;2024-02-16T04:40:09;6.60;99.90
21255;DHT22;10785;50.674;17.954;2024-02-16T04:42:45;6.60;99.90
21255;DHT22;10785;50.674;17.954;2024-02-16T04:45:25;7.30;99.90
21255;DHT22;10785;50.674;17.954;2024-02-16T04:48:19;6.60;99.90
21255;DHT22;10785;50.674;17.954;2024-02-16T04:51:03;6.70;99.90
21255;DHT22;10785;50.674;17.954;2024-02-16T04:53:48;6.60;99.90
21255;DHT22;10785;50.674;17.954;2024-02-16T04:56:35;7.00;99.90
21255;DHT22;10785;50.674;17.954;2024-02-16T04:59:07;6.70;99.90
21255;DHT22;10785;50.674;17.954;2024-02-16T05:01:44;6.90;99.90
21255;DHT22;10785;50.674;17.954;2024-02-16T05:04:14;6.70;99.90
21255;DHT22;10785;50.674;17.954;2024-02-16T05:06:46;6.70;99.90
21255;DHT22;10785;50.674;17.954;2024-02-16T05:09:15;6.80;99.90
21255;DHT22;10785;50.674;17.954;2024-02-16T05:11:45;6.90;99.90
21255;DHT22;10785;50.674;17.954;2024-02-16T05:14:14;6.90;99.90
21255;DHT22;10785;50.674;17.954;2024-02-16T05:16:44;6.90;99.90
21255;DHT22;10785;50.674;17.954;2024-02-16T05:19:13;6.90;72.30
21255;DHT22;10785;50.674;17.954;2024-02-16T05:21:43;6.90;36.70
21255;DHT22;10785;50.674;17.954;2024-02-16T05:24:13;6.90;11.20
21255;DHT22;10785;50.674;17.954;2024-02-16T05:26:42;6.90;1.00
21255;DHT22;10785;50.674;17.954;2024-02-16T05:29:13;6.90;1.00
21255;DHT22;10785;50.674;17.954;2024-02-16T05:31:42;7.00;1.00
21255;DHT22;10785;50.674;17.954;2024-02-16T05:34:11;6.80;1.00
21255;DHT22;10785;50.674;17.954;2024-02-16T05:36:41;6.80;1.00
21255;DHT22;10785;50.674;17.954;2024-02-16T05:39:11;6.80;1.00
21255;DHT22;10785;50.674;17.954;2024-02-16T05:41:56;6.80;1.00
21255;DHT22;10785;50.674;17.954;2024-02-16T05:44:26;6.80;1.00
21255;DHT22;10785;50.674;17.954;2024-02-16T05:46:55;6.80;1.00
21255;DHT22;10785;50.674;17.954;2024-02-16T05:49:26;6.80;1.00
21255;DHT22;10785;50.674;17.954;2024-02-16T05:51:56;6.80;1.00
21255;DHT22;10785;50.674;17.954;2024-02-16T05:54:43;6.80;1.00
21255;DHT22;10785;50.674;17.954;2024-02-16T05:57:15;6.70;1.00
21255;DHT22;10785;50.674;17.954;2024-02-16T05:59:46;6.70;1.00
21255;DHT22;10785;50.674;17.954;2024-02-16T06:02:18;6.70;1.00
21255;DHT22;10785;50.674;17.954;2024-02-16T06:04:47;6.60;1.00
21255;DHT22;10785;50.674;17.954;2024-02-16T06:07:21;6.70;1.00
21255;DHT22;10785;50.674;17.954;2024-02-16T06:09:51;6.70;1.00
21255;DHT22;10785;50.674;17.954;2024-02-16T06:12:24;6.70;1.00
21255;DHT22;10785;50.674;17.954;2024-02-16T06:14:56;8.40;1.00
21255;DHT22;10785;50.674;17.954;2024-02-16T06:17:30;6.80;1.00
21255;DHT22;10785;50.674;17.954;2024-02-16T06:20:00;6.80;99.90
21255;DHT22;10785;50.674;17.954;2024-02-16T06:22:31;6.80;99.90
21255;DHT22;10785;50.674;17.954;2024-02-16T06:25:02;7.00;99.90
21255;DHT22;10785;50.674;17.954;2024-02-16T06:27:36;6.90;1.00
21255;DHT22;10785;50.674;17.954;2024-02-16T06:30:06;7.00;1.00
21255;DHT22;10785;50.674;17.954;2024-02-16T06:32:42;7.00;99.90
21255;DHT22;10785;50.674;17.954;2024-02-16T06:35:13;7.00;1.00
21255;DHT22;10785;50.674;17.954;2024-02-16T06:37:43;7.10;1.00
21255;DHT22;10785;50.674;17.954;2024-02-16T06:40:14;7.10;1.00
21255;DHT22;10785;50.674;17.954;2024-02-16T06:42:49;7.20;99.90
21255;DHT22;10785;50.674;17.954;2024-02-16T06:45:19;7.30;1.00
21255;DHT22;10785;50.674;17.954;2024-02-16T06:47:49;7.40;1.00
21255;DHT22;10785;50.674;17.954;2024-02-16T06:50:21;7.40;1.00
21255;DHT22;10785;50.674;17.954;2024-02-16T06:52:54;7.50;99.90
21255;DHT22;10785;50.674;17.954;2024-02-16T06:55:26;7.50;1.00
21255;DHT22;10785;50.674;17.954;2024-02-16T06:57:58;7.60;1.00
21255;DHT22;10785;50.674;17.954;2024-02-16T07:00:32;7.70;99.90
21255;DHT22;10785;50.674;17.954;2024-02-16T07:03:06;7.80;27.00
21255;DHT22;10785;50.674;17.954;2024-02-16T07:05:41;7.90;1.00
21255;DHT22;10785;50.674;17.954;2024-02-16T07:08:14;7.90;1.00
21255;DHT22;10785;50.674;17.954;2024-02-16T07:10:48;8.10;99.90
21255;DHT22;10785;50.674;17.954;2024-02-16T07:13:22;8.10;99.90
21255;DHT22;10785;50.674;17.954;2024-02-16T07:15:53;8.20;63.30
21255;DHT22;10785;50.674;17.954;2024-02-16T07:18:23;8.30;1.00
21255;DHT22;10785;50.674;17.954;2024-02-16T07:20:53;8.40;1.00
21255;DHT22;10785;50.674;17.954;2024-02-16T07:23:29;8.50;1.00
21255;DHT22;10785;50.674;17.954;2024-02-16T07:25:59;8.70;99.90
21255;DHT22;10785;50.674;17.954;2024-02-16T07:28:36;8.80;99.90
21255;DHT22;10785;50.674;17.954;2024-02-16T07:31:10;9.00;99.90
21255;DHT22;10785;50.674;17.954;2024-02-16T07:33:44;9.00;99.90
21255;DHT22;10785;50.674;17.954;2024-02-16T07:36:16;9.10;98.00
21255;DHT22;10785;50.674;17.954;2024-02-16T07:38:49;9.10;43.60
21255;DHT22;10785;50.674;17.954;2024-02-16T07:41:21;9.20;10.20
21255;DHT22;10785;50.674;17.954;2024-02-16T07:43:54;9.30;1.00
21255;DHT22;10785;50.674;17.954;2024-02-16T07:46:25;9.40;1.00
21255;DHT22;10785;50.674;17.954;2024-02-16T07:51:49;9.50;1.00
21255;DHT22;10785;50.674;17.954;2024-02-16T07:54:19;9.60;1.00
21255;DHT22;10785;50.674;17.954;2024-02-16T07:56:51;9.60;1.00
21255;DHT22;10785;50.674;17.954;2024-02-16T07:59:22;9.70;1.00
21255;DHT22;10785;50.674;17.954;2024-02-16T08:01:52;9.80;1.00
21255;DHT22;10785;50.674;17.954;2024-02-16T08:04:29;9.80;1.00
21255;DHT22;10785;50.674;17.954;2024-02-16T08:07:00;9.80;1.00
21255;DHT22;10785;50.674;17.954;2024-02-16T08:09:36;9.90;1.00
21255;DHT22;10785;50.674;17.954;2024-02-16T08:12:15;9.90;1.00
21255;DHT22;10785;50.674;17.954;2024-02-16T08:14:52;9.90;1.00
21255;DHT22;10785;50.674;17.954;2024-02-16T08:17:26;10.00;1.00
21255;DHT22;10785;50.674;17.954;2024-02-16T08:19:56;10.00;1.00
21255;DHT22;10785;50.674;17.954;2024-02-16T08:22:29;10.10;1.00
21255;DHT22;10785;50.674;17.954;2024-02-16T08:25:01;10.20;1.00
21255;DHT22;10785;50.674;17.954;2024-02-16T08:27:35;10.20;1.00
21255;DHT22;10785;50.674;17.954;2024-02-16T08:30:13;10.30;1.00
21255;DHT22;10785;50.674;17.954;2024-02-16T08:32:44;10.40;1.00
21255;DHT22;10785;50.674;17.954;2024-02-16T08:35:13;10.50;1.00
21255;DHT22;10785;50.674;17.954;2024-02-16T08:37:46;10.60;1.00
21255;DHT22;10785;50.674;17.954;2024-02-16T08:40:17;10.70;1.00
21255;DHT22;10785;50.674;17.954;2024-02-16T08:42:52;10.80;1.00
21255;DHT22;10785;50.674;17.954;2024-02-16T08:45:39;10.90;1.00
21255;DHT22;10785;50.674;17.954;2024-02-16T08:48:13;10.90;1.00
21255;DHT22;10785;50.674;17.954;2024-02-16T08:50:43;10.90;1.00
21255;DHT22;10785;50.674;17.954;2024-02-16T08:53:12;11.00;1.00
21255;DHT22;10785;50.674;17.954;2024-02-16T08:55:42;11.00;1.00
21255;DHT22;10785;50.674;17.954;2024-02-16T08:58:18;11.10;1.00
21255;DHT22;10785;50.674;17.954;2024-02-16T09:00:48;11.20;1.00
21255;DHT22;10785;50.674;17.954;2024-02-16T09:03:17;11.10;1.00
21255;DHT22;10785;50.674;17.954;2024-02-16T09:05:48;11.10;99.90
21255;DHT22;10785;50.674;17.954;2024-02-16T09:08:17;11.30;99.90
21255;DHT22;10785;50.674;17.954;2024-02-16T09:10:47;11.30;99.90
21255;DHT22;10785;50.674;17.954;2024-02-16T09:13:17;11.30;99.90
21255;DHT22;10785;50.674;17.954;2024-02-16T09:15:50;11.30;99.90
21255;DHT22;10785;50.674;17.954;2024-02-16T09:18:20;11.30;99.90
21255;DHT22;10785;50.674;17.954;2024-02-16T09:20:49;11.30;99.90
21255;DHT22;10785;50.674;17.954;2024-02-16T09:23:19;11.30;99.90
21255;DHT22;10785;50.674;17.954;2024-02-16T09:25:48;11.30;99.90
21255;DHT22;10785;50.674;17.954;2024-02-16T09:28:18;11.40;99.90
21255;DHT22;10785;50.674;17.954;2024-02-16T09:30:58;11.50;99.90
21255;DHT22;10785;50.674;17.954;2024-02-16T09:33:27;11.60;99.90
21255;DHT22;10785;50.674;17.954;2024-02-16T09:35:57;11.60;99.90
21255;DHT22;10785;50.674;17.954;2024-02-16T09:38:26;11.70;99.90
21255;DHT22;10785;50.674;17.954;2024-02-16T09:40:56;11.70;99.90
21255;DHT22;10785;50.674;17.954;2024-02-16T09:43:27;11.80;99.90
21255;DHT22;10785;50.674;17.954;2024-02-16T09:45:59;11.80;99.90
21255;DHT22;10785;50.674;17.954;2024-02-16T09:48:29;11.90;99.90
21255;DHT22;10785;50.674;17.954;2024-02-16T09:50:59;11.90;99.90
21255;DHT22;10785;50.674;17.954;2024-02-16T09:53:29;12.00;99.90
21255;DHT22;10785;50.674;17.954;2024-02-16T09:55:58;12.10;99.90
21255;DHT22;10785;50.674;17.954;2024-02-16T09:58:30;12.10;99.90
21255;DHT22;10785;50.674;17.954;2024-02-16T10:01:04;12.20;99.90
21255;DHT22;10785;50.674;17.954;2024-02-16T10:03:34;12.30;99.90
21255;DHT22;10785;50.674;17.954;2024-02-16T10:06:05;12.20;99.90
21255;DHT22;10785;50.674;17.954;2024-02-16T10:08:47;12.30;99.90
21255;DHT22;10785;50.674;17.954;2024-02-16T10:11:18;12.40;99.90
21255;DHT22;10785;50.674;17.954;2024-02-16T10:13:58;12.50;99.90
21255;DHT22;10785;50.674;17.954;2024-02-16T10:16:31;12.50;99.90
21255;DHT22;10785;50.674;17.954;2024-02-16T10:19:07;12.60;99.90
21255;DHT22;10785;50.674;17.954;2024-02-16T10:21:43;12.70;99.90
21255;DHT22;10785;50.674;17.954;2024-02-16T10:24:12;12.80;99.90
21255;DHT22;10785;50.674;17.954;2024-02-16T10:26:43;12.90;99.90
21255;DHT22;10785;50.674;17.954;2024-02-16T10:29:18;13.00;99.90
21255;DHT22;10785;50.674;17.954;2024-02-16T10:31:50;13.00;99.90
21255;DHT22;10785;50.674;17.954;2024-02-16T10:34:21;13.10;99.90
21255;DHT22;10785;50.674;17.954;2024-02-16T10:36:53;13.10;99.90
21255;DHT22;10785;50.674;17.954;2024-02-16T10:39:23;13.20;99.90
21255;DHT22;10785;50.674;17.954;2024-02-16T10:41:54;13.30;99.90
21255;DHT22;10785;50.674;17.954;2024-02-16T10:44:28;13.30;99.90
21255;DHT22;10785;50.674;17.954;2024-02-16T10:46:59;13.30;99.90
21255;DHT22;10785;50.674;17.954;2024-02-16T10:49:32;13.40;99.90
21255;DHT22;10785;50.674;17.954;2024-02-16T10:52:06;13.50;99.90
21255;DHT22;10785;50.674;17.954;2024-02-16T10:54:38;13.50;99.90
21255;DHT22;10785;50.674;17.954;2024-02-16T10:57:08;13.60;99.90
21255;DHT22;10785;50.674;17.954;2024-02-16T10:59:44;13.70;99.90
21255;DHT22;10785;50.674;17.954;2024-02-16T11:02:19;13.70;98.70
21255;DHT22;10785;50.674;17.954;2024-02-16T11:04:55;13.80;92.60
21255;DHT22;10785;50.674;17.954;2024-02-16T11:07:25;13.90;85.80
21255;DHT22;10785;50.674;17.954;2024-02-16T11:09:59;13.90;69.60
21255;DHT22;10785;50.674;17.954;2024-02-16T11:12:33;14.00;66.90
21255;DHT22;10785;50.674;17.954;2024-02-16T11:15:08;14.10;57.40
21255;DHT22;10785;50.674;17.954;2024-02-16T11:17:40;14.10;42.40
21255;DHT22;10785;50.674;17.954;2024-02-16T11:20:13;14.20;34.50
21255;DHT22;10785;50.674;17.954;2024-02-16T11:22:43;14.30;22.20
21255;DHT22;10785;50.674;17.954;2024-02-16T11:25:12;14.20;10.10
21255;DHT22;10785;50.674;17.954;2024-02-16T11:27:42;14.20;3.40
21255;DHT22;10785;50.674;17.954;2024-02-16T11:30:12;14.30;1.00
21255;DHT22;10785;50.674;17.954;2024-02-16T11:32:44;14.20;1.00
21255;DHT22;10785;50.674;17.954;2024-02-16T11:35:16;14.30;1.00
21255;DHT22;10785;50.674;17.954;2024-02-16T11:37:46;14.20;1.00
21255;DHT22;10785;50.674;17.954;2024-02-16T11:40:15;14.20;1.00
21255;DHT22;10785;50.674;17.954;2024-02-16T11:42:59;14.30;1.00
21255;DHT22;10785;50.674;17.954;2024-02-16T11:45:34;14.30;1.00
21255;DHT22;10785;50.674;17.954;2024-02-16T11:48:12;14.30;1.00
21255;DHT22;10785;50.674;17.954;2024-02-16T11:50:42;14.60;1.00
21255;DHT22;10785;50.674;17.954;2024-02-16T11:53:16;14.20;1.00
21255;DHT22;10785;50.674;17.954;2024-02-16T11:55:47;14.30;1.00
21255;DHT22;10785;50.674;17.954;2024-02-16T11:58:17;14.30;1.00
21255;DHT22;10785;50.674;17.954;2024-02-16T12:00:48;14.30;1.00
21255;DHT22;10785;50.674;17.954;2024-02-16T12:03:22;14.30;1.00
21255;DHT22;10785;50.674;17.954;2024-02-16T12:05:53;14.30;1.00
21255;DHT22;10785;50.674;17.954;2024-02-16T12:08:31;14.30;1.00
21255;DHT22;10785;50.674;17.954;2024-02-16T12:11:01;14.30;1.00
21255;DHT22;10785;50.674;17.954;2024-02-16T12:13:30;14.30;1.00
21255;DHT22;10785;50.674;17.954;2024-02-16T12:16:02;15.20;1.00
21255;DHT22;10785;50.674;17.954;2024-02-16T12:18:37;14.30;1.00
21255;DHT22;10785;50.674;17.954;2024-02-16T12:21:17;16.00;1.00
21255;DHT22;10785;50.674;17.954;2024-02-16T12:23:47;14.40;1.00
21255;DHT22;10785;50.674;17.954;2024-02-16T12:26:20;14.50;1.00
21255;DHT22;10785;50.674;17.954;2024-02-16T12:28:54;14.50;1.00
21255;DHT22;10785;50.674;17.954;2024-02-16T12:31:26;14.40;1.00
21255;DHT22;10785;50.674;17.954;2024-02-16T12:34:01;14.50;1.00
21255;DHT22;10785;50.674;17.954;2024-02-16T12:36:34;15.40;1.00
21255;DHT22;10785;50.674;17.954;2024-02-16T12:39:07;14.50;1.00
21255;DHT22;10785;50.674;17.954;2024-02-16T12:41:37;14.60;1.00
21255;DHT22;10785;50.674;17.954;2024-02-16T12:44:12;14.50;1.00
21255;DHT22;10785;50.674;17.954;2024-02-16T12:46:44;14.60;1.00
21255;DHT22;10785;50.674;17.954;2024-02-16T12:49:16;14.60;1.00
21255;DHT22;10785;50.674;17.954;2024-02-16T12:51:50;14.60;1.00
21255;DHT22;10785;50.674;17.954;2024-02-16T12:54:24;14.60;1.00
21255;DHT22;10785;50.674;17.954;2024-02-16T12:56:58;14.60;1.00
21255;DHT22;10785;50.674;17.954;2024-02-16T12:59:30;14.50;1.00
21255;DHT22;10785;50.674;17.954;2024-02-16T13:02:02;14.30;1.00
21255;DHT22;10785;50.674;17.954;2024-02-16T13:04:35;14.40;1.00
21255;DHT22;10785;50.674;17.954;2024-02-16T13:07:10;14.40;1.00
21255;DHT22;10785;50.674;17.954;2024-02-16T13:09:42;14.50;1.00
21255;DHT22;10785;50.674;17.954;2024-02-16T13:12:15;14.60;1.00
21255;DHT22;10785;50.674;17.954;2024-02-16T13:14:48;14.60;1.00
21255;DHT22;10785;50.674;17.954;2024-02-16T13:17:22;14.60;1.00
21255;DHT22;10785;50.674;17.954;2024-02-16T13:19:53;14.60;1.00
21255;DHT22;10785;50.674;17.954;2024-02-16T13:22:31;14.70;1.00
21255;DHT22;10785;50.674;17.954;2024-02-16T13:25:01;14.70;1.00
21255;DHT22;10785;50.674;17.954;2024-02-16T13:27:30;14.70;1.00
21255;DHT22;10785;50.674;17.954;2024-02-16T13:29:59;14.70;1.00
21255;DHT22;10785;50.674;17.954;2024-02-16T13:32:28;14.70;1.00
21255;DHT22;10785;50.674;17.954;2024-02-16T13:35:04;14.70;1.00
21255;DHT22;10785;50.674;17.954;2024-02-16T13:37:33;14.80;1.00
21255;DHT22;10785;50.674;17.954;2024-02-16T13:40:03;14.80;1.00
21255;DHT22;10785;50.674;17.954;2024-02-16T13:42:35;14.80;1.00
21255;DHT22;10785;50.674;17.954;2024-02-16T13:45:05;14.70;1.00
21255;DHT22;10785;50.674;17.954;2024-02-16T13:47:35;14.60;1.00
21255;DHT22;10785;50.674;17.954;2024-02-16T13:50:09;14.50;1.00
21255;DHT22;10785;50.674;17.954;2024-02-16T13:52:39;14.40;1.00
21255;DHT22;10785;50.674;17.954;2024-02-16T13:55:10;14.40;1.00
21255;DHT22;10785;50.674;17.954;2024-02-16T13:57:42;14.40;1.00
21255;DHT22;10785;50.674;17.954;2024-02-16T14:00:12;14.40;1.00
21255;DHT22;10785;50.674;17.954;2024-02-16T14:02:47;14.40;1.00
21255;DHT22;10785;50.674;17.954;2024-02-16T14:05:19;14.40;1.00
21255;DHT22;10785;50.674;17.954;2024-02-16T14:07:52;14.40;1.00
21255;DHT22;10785;50.674;17.954;2024-02-16T14:10:30;14.40;1.00
21255;DHT22;10785;50.674;17.954;2024-02-16T14:13:01;14.50;1.00
21255;DHT22;10785;50.674;17.954;2024-02-16T14:15:31;14.40;1.00
21255;DHT22;10785;50.674;17.954;2024-02-16T14:18:01;14.30;1.00
21255;DHT22;10785;50.674;17.954;2024-02-16T14:20:45;14.30;1.00
21255;DHT22;10785;50.674;17.954;2024-02-16T14:23:16;14.30;1.00
21255;DHT22;10785;50.674;17.954;2024-02-16T14:25:47;14.30;1.00
21255;DHT22;10785;50.674;17.954;2024-02-16T14:28:20;14.30;1.00
21255;DHT22;10785;50.674;17.954;2024-02-16T14:30:52;14.20;1.00
21255;DHT22;10785;50.674;17.954;2024-02-16T14:33:22;12.30;1.00
21255;DHT22;10785;50.674;17.954;2024-02-16T14:36:06;14.20;1.00
21255;DHT22;10785;50.674;17.954;2024-02-16T14:38:46;14.10;1.00
21255;DHT22;10785;50.674;17.954;2024-02-16T14:41:25;14.10;1.00
21255;DHT22;10785;50.674;17.954;2024-02-16T14:43:55;14.10;1.00
21255;DHT22;10785;50.674;17.954;2024-02-16T14:46:25;14.00;1.00
21255;DHT22;10785;50.674;17.954;2024-02-16T14:48:55;14.00;1.00
21255;DHT22;10785;50.674;17.954;2024-02-16T14:51:27;14.00;1.00
21255;DHT22;10785;50.674;17.954;2024-02-16T14:54:01;14.00;1.00
21255;DHT22;10785;50.674;17.954;2024-02-16T14:56:36;13.90;1.00
21255;DHT22;10785;50.674;17.954;2024-02-16T14:59:14;13.90;1.00
21255;DHT22;10785;50.674;17.954;2024-02-16T15:01:44;13.90;1.00
21255;DHT22;10785;50.674;17.954;2024-02-16T15:04:12;13.90;1.00
21255;DHT22;10785;50.674;17.954;2024-02-16T15:06:44;14.00;1.00
21255;DHT22;10785;50.674;17.954;2024-02-16T15:09:13;14.00;1.00
21255;DHT22;10785;50.674;17.954;2024-02-16T15:11:45;13.90;1.00
21255;DHT22;10785;50.674;17.954;2024-02-16T15:14:17;13.80;1.00
21255;DHT22;10785;50.674;17.954;2024-02-16T15:16:51;13.80;1.00
21255;DHT22;10785;50.674;17.954;2024-02-16T15:19:21;13.60;1.00
21255;DHT22;10785;50.674;17.954;2024-02-16T15:21:52;13.50;1.00
21255;DHT22;10785;50.674;17.954;2024-02-16T15:24:21;13.20;1.00
21255;DHT22;10785;50.674;17.954;2024-02-16T15:26:50;13.20;1.00
21255;DHT22;10785;50.674;17.954;2024-02-16T15:29:21;13.20;1.00
21255;DHT22;10785;50.674;17.954;2024-02-16T15:31:50;13.10;1.00
21255;DHT22;10785;50.674;17.954;2024-02-16T15:34:19;13.00;1.00
21255;DHT22;10785;50.674;17.954;2024-02-16T15:36:48;12.90;1.00
21255;DHT22;10785;50.674;17.954;2024-02-16T15:39:19;11.30;1.00
21255;DHT22;10785;50.674;17.954;2024-02-16T15:41:48;12.70;1.00
21255;DHT22;10785;50.674;17.954;2024-02-16T15:44:17;12.70;1.00
21255;DHT22;10785;50.674;17.954;2024-02-16T15:46:49;12.60;1.00
21255;DHT22;10785;50.674;17.954;2024-02-16T15:49:21;12.60;1.00
21255;DHT22;10785;50.674;17.954;2024-02-16T15:51:51;12.00;1.00
21255;DHT22;10785;50.674;17.954;2024-02-16T15:54:24;12.50;1.00
21255;DHT22;10785;50.674;17.954;2024-02-16T15:56:56;12.40;1.00
21255;DHT22;10785;50.674;17.954;2024-02-16T15:59:29;12.40;1.00
21255;DHT22;10785;50.674;17.954;2024-02-16T16:01:59;12.30;1.00
21255;DHT22;10785;50.674;17.954;2024-02-16T16:04:31;12.20;1.00
21255;DHT22;10785;50.674;17.954;2024-02-16T16:07:03;12.20;1.00
21255;DHT22;10785;50.674;17.954;2024-02-16T16:09:35;12.20;1.00
21255;DHT22;10785;50.674;17.954;2024-02-16T16:12:06;12.10;1.00
21255;DHT22;10785;50.674;17.954;2024-02-16T16:14:35;12.00;1.00
21255;DHT22;10785;50.674;17.954;2024-02-16T16:17:08;12.00;1.00
21255;DHT22;10785;50.674;17.954;2024-02-16T16:19:42;11.90;1.00
21255;DHT22;10785;50.674;17.954;2024-02-16T16:22:16;11.90;1.00